Time;durP1;ratioP1;P1;durP2;ratioP2;P2;SDS_P1;SDS_P2;PMS_P1;PMS_P2;Temp;Humidity;BMP_temperature;BMP_pressure;BME280_temperature;BME280_humidity;BME280_pressure;Samples;Min_cycle;Max_cycle;Signal;HPM_P1;HPM_P2
2023/05/08 00:03:08;;;;;;;3.17;1.58;;;;;;;;;;13008276;19;20007;-66
2023/05/08 00:07:28;;;;;;;2.53;1.42;;;;;;;;;;13009468;19;20021;-67
2023/05/08 00:11:47;;;;;;;1.58;1.30;;;;;;;;;;13008895;19;20015;-66
2023/05/08 00:16:05;;;;;;;1.33;1.15;;;;;;;;;;13006383;19;20017;-68
2023/05/08 00:20:23;;;;;;;;;;;;;;;;;;13008575;19;20007;-66
2023/05/08 00:24:40;;;;;;;2.20;1.67;;;;;;;;;;13008323;19;19906;-66
2023/05/08 00:28:58;;;;;;;2.88;1.50;;;;;;;;;;13007962;19;20010;-68
2023/05/08 00:33:16;;;;;;;3.00;2.03;;;;;;;;;;13007069;19;20002;-66
2023/05/08 00:37:34;;;;;;;2.65;1.40;;;;;;;;;;13007303;19;20034;-66
2023/05/08 00:41:51;;;;;;;3.00;1.60;;;;;;;;;;13002873;19;20002;-67
2023/05/08 00:46:10;;;;;;;1.92;1.30;;;;;;;;;;13006661;19;20087;-66
2023/05/08 00:50:28;;;;;;;4.18;1.77;;;;;;;;;;13005330;19;20485;-66
2023/05/08 00:54:46;;;;;;;2.22;1.60;;;;;;;;;;13005144;19;20011;-68
2023/05/08 00:59:10;;;;;;;2.47;1.80;;;;;;;;;;13005113;19;20014;-66
2023/05/08 01:03:28;;;;;;;3.33;2.10;;;;;;;;;;13006322;19;20017;-67
2023/05/08 01:07:47;;;;;;;2.28;1.45;;;;;;;;;;13006901;19;20334;-66
2023/05/08 01:12:31;;;;;;;2.63;1.67;;;;;;;;;;13003394;19;20006;-66
2023/05/08 01:17:44;;;;;;;2.75;1.77;;;;;;;;;;13005501;19;20017;-66
2023/05/08 01:22:35;;;;;;;2.75;1.58;;;;;;;;;;13003167;19;20469;-66
2023/05/08 01:27:17;;;;;;;2.58;1.30;;;;;;;;;;13003222;19;20346;-67
2023/05/08 01:32:15;;;;;;;2.28;1.48;;;;;;;;;;13003329;19;20013;-67
2023/05/08 01:36:38;;;;;;;1.73;1.10;;;;;;;;;;13003944;19;19998;-66
2023/05/08 01:41:04;;;;;;;1.80;1.45;;;;;;;;;;13004042;19;20013;-66
2023/05/08 01:45:33;;;;;;;1.63;1.23;;;;;;;;;;13002056;19;20010;-66
2023/05/08 01:50:22;;;;;;;1.55;1.15;;;;;;;;;;13002008;19;20505;-65
2023/05/08 01:54:49;;;;;;;3.63;1.33;;;;;;;;;;13002170;19;20017;-68
2023/05/08 01:59:09;;;;;;;1.60;1.48;;;;;;;;;;13002421;19;20025;-67
2023/05/08 02:03:32;;;;;;;1.42;1.08;;;;;;;;;;13001625;19;20038;-67
2023/05/08 02:07:51;;;;;;;2.67;1.27;;;;;;;;;;13001572;19;20010;-66
2023/05/08 02:12:10;;;;;;;2.80;1.55;;;;;;;;;;12999867;19;20463;-66
2023/05/08 02:16:29;;;;;;;1.45;0.90;;;;;;;;;;13000756;19;20010;-66
2023/05/08 02:20:50;;;;;;;2.92;1.50;;;;;;;;;;13000399;19;20010;-65
2023/05/08 02:25:13;;;;;;;3.45;1.48;;;;;;;;;;13002006;19;20323;-67
2023/05/08 02:29:31;;;;;;;1.73;1.10;;;;;;;;;;13002001;19;20010;-67
2023/05/08 02:33:51;;;;;;;2.95;1.50;;;;;;;;;;13000080;19;20019;-66
2023/05/08 02:38:10;;;;;;;1.95;1.10;;;;;;;;;;12998530;19;20026;-69
2023/05/08 02:42:29;;;;;;;2.60;1.50;;;;;;;;;;12999125;19;20018;-67
2023/05/08 02:47:05;;;;;;;3.88;1.50;;;;;;;;;;12999408;19;20022;-67
2023/05/08 02:51:56;;;;;;;2.38;1.63;;;;;;;;;;12999287;19;20031;-67
2023/05/08 02:56:33;;;;;;;2.30;1.55;;;;;;;;;;12998491;19;20021;-67
2023/05/08 03:01:36;;;;;;;2.47;1.85;;;;;;;;;;13000252;19;20007;-67
2023/05/08 03:05:56;;;;;;;1.65;1.42;;;;;;;;;;13011216;19;20021;-66
2023/05/08 03:10:15;;;;;;;2.85;1.70;;;;;;;;;;13012109;19;19994;-66
2023/05/08 03:14:52;;;;;;;2.50;1.63;;;;;;;;;;13010748;19;20026;-65
2023/05/08 03:19:33;;;;;;;4.40;2.38;;;;;;;;;;13009060;19;20014;-65
2023/05/08 03:23:52;;;;;;;5.60;3.72;;;;;;;;;;13010587;19;20022;-67
2023/05/08 03:28:11;;;;;;;4.47;3.30;;;;;;;;;;13009105;19;20469;-67
2023/05/08 03:32:32;;;;;;;3.67;2.15;;;;;;;;;;13009731;19;20469;-66
2023/05/08 03:36:51;;;;;;;5.90;2.35;;;;;;;;;;13009751;19;20026;-66
2023/05/08 03:41:10;;;;;;;4.43;1.85;;;;;;;;;;13008630;19;20018;-65
2023/05/08 03:45:30;;;;;;;4.70;2.13;;;;;;;;;;13010565;19;20462;-66
2023/05/08 03:49:49;;;;;;;5.38;2.25;;;;;;;;;;13010690;19;20021;-67
2023/05/08 03:54:07;;;;;;;8.93;2.55;;;;;;;;;;13009048;19;20013;-67
2023/05/08 03:58:37;;;;;;;1.40;1.10;;;;;;;;;;13009813;19;19999;-67
2023/05/08 04:03:04;;;;;;;3.70;2.03;;;;;;;;;;13007753;19;20376;-66
2023/05/08 04:07:27;;;;;;;4.90;2.28;;;;;;;;;;13007985;19;20022;-66
2023/05/08 04:11:53;;;;;;;1.85;1.38;;;;;;;;;;13007284;19;20078;-66
2023/05/08 04:16:23;;;;;;;3.00;1.90;;;;;;;;;;13008466;19;20003;-68
2023/05/08 04:20:46;;;;;;;6.22;1.42;;;;;;;;;;13007973;19;20496;-66
2023/05/08 04:25:07;;;;;;;2.72;1.38;;;;;;;;;;13006901;19;20338;-67
2023/05/08 04:29:25;;;;;;;3.13;1.42;;;;;;;;;;13006443;19;20018;-67
2023/05/08 04:33:43;;;;;;;;;;;;;;;;;;13007608;19;20002;-67
2023/05/08 04:38:02;;;;;;;2.35;1.70;;;;;;;;;;13006580;19;19919;-66
2023/05/08 04:42:20;;;;;;;6.00;2.08;;;;;;;;;;13005930;19;20040;-67
2023/05/08 04:46:37;;;;;;;1.80;0.90;;;;;;;;;;13007353;19;20013;-67
2023/05/08 04:50:55;;;;;;;3.67;1.60;;;;;;;;;;13007048;19;20326;-68
2023/05/08 04:55:13;;;;;;;1.23;1.13;;;;;;;;;;13006103;19;20006;-67
2023/05/08 04:59:31;;;;;;;4.60;1.80;;;;;;;;;;13005974;19;20350;-66
2023/05/08 05:03:49;;;;;;;3.85;1.13;;;;;;;;;;13006480;19;20054;-67
2023/05/08 05:08:07;;;;;;;2.53;1.13;;;;;;;;;;13005315;19;20370;-67
2023/05/08 05:12:25;;;;;;;2.67;1.45;;;;;;;;;;13006119;19;20014;-66
2023/05/08 05:16:43;;;;;;;2.17;1.58;;;;;;;;;;13005707;19;20085;-66
2023/05/08 05:21:01;;;;;;;2.08;1.33;;;;;;;;;;13004147;19;20010;-65
2023/05/08 05:25:19;;;;;;;1.50;1.40;;;;;;;;;;13003935;19;20100;-65
2023/05/08 05:29:37;;;;;;;1.75;1.13;;;;;;;;;;13004995;19;20091;-66
2023/05/08 05:33:55;;;;;;;2.53;1.75;;;;;;;;;;13004426;19;19998;-66
2023/05/08 05:38:13;;;;;;;1.80;1.33;;;;;;;;;;13004538;19;20002;-67
2023/05/08 05:42:31;;;;;;;1.73;1.20;;;;;;;;;;13002826;19;20030;-66
2023/05/08 05:46:48;;;;;;;2.58;1.42;;;;;;;;;;13004183;19;20018;-66
2023/05/08 05:51:06;;;;;;;3.80;1.40;;;;;;;;;;13002711;19;20021;-66
2023/05/08 05:55:24;;;;;;;2.10;1.20;;;;;;;;;;13004387;19;20021;-66
2023/05/08 05:59:42;;;;;;;1.95;1.38;;;;;;;;;;13002979;19;20446;-65
2023/05/08 06:04:00;;;;;;;0.40;0.38;;;;;;;;;;13003104;19;20010;-65
2023/05/08 06:08:18;;;;;;;2.08;1.38;;;;;;;;;;13002051;19;20362;-65
2023/05/08 06:12:35;;;;;;;1.05;0.95;;;;;;;;;;13001035;19;20007;-66
2023/05/08 06:16:53;;;;;;;6.15;1.80;;;;;;;;;;13002289;19;20002;-67
2023/05/08 06:21:12;;;;;;;2.80;1.70;;;;;;;;;;13001179;19;20011;-66
2023/05/08 06:25:30;;;;;;;1.35;1.17;;;;;;;;;;13001971;19;20465;-66
2023/05/08 06:29:52;;;;;;;3.00;1.48;;;;;;;;;;13001817;19;20014;-66
2023/05/08 06:34:10;;;;;;;2.65;1.40;;;;;;;;;;13001404;19;20025;-67
2023/05/08 06:38:28;;;;;;;1.38;1.05;;;;;;;;;;13006297;19;20025;-66
2023/05/08 06:42:46;;;;;;;0.68;0.60;;;;;;;;;;13013581;19;20006;-66
2023/05/08 06:47:03;;;;;;;;;;;;;;;;;;13013678;19;20480;-67
2023/05/08 06:51:22;;;;;;;2.70;0.90;;;;;;;;;;13013720;19;19938;-67
2023/05/08 06:55:42;;;;;;;6.50;2.45;;;;;;;;;;13013778;19;20015;-66
2023/05/08 07:00:00;;;;;;;2.10;1.48;;;;;;;;;;13012779;19;20018;-66
2023/05/08 07:04:19;;;;;;;2.70;1.67;;;;;;;;;;13013185;19;20099;-66
2023/05/08 07:08:37;;;;;;;2.97;1.00;;;;;;;;;;13012676;19;20470;-67
2023/05/08 07:12:55;;;;;;;1.38;0.73;;;;;;;;;;13012681;19;20019;-65
2023/05/08 07:17:13;;;;;;;1.92;1.23;;;;;;;;;;13011931;19;20357;-66
2023/05/08 07:21:30;;;;;;;2.25;1.33;;;;;;;;;;13012006;19;20017;-66
2023/05/08 07:25:48;;;;;;;3.05;2.30;;;;;;;;;;13011973;19;20022;-67
2023/05/08 07:30:07;;;;;;;3.33;0.98;;;;;;;;;;13012084;19;20014;-67
2023/05/08 07:34:25;;;;;;;3.15;1.98;;;;;;;;;;13010313;19;20018;-67
2023/05/08 07:38:42;;;;;;;3.00;1.83;;;;;;;;;;13010743;19;20006;-66
2023/05/08 07:43:00;;;;;;;2.53;1.35;;;;;;;;;;13010005;19;20125;-66
2023/05/08 07:47:18;;;;;;;3.33;2.25;;;;;;;;;;13010114;19;20018;-66
2023/05/08 07:51:35;;;;;;;2.30;1.75;;;;;;;;;;13009416;19;20086;-67
2023/05/08 07:55:53;;;;;;;2.40;1.27;;;;;;;;;;13008417;19;20015;-66
2023/05/08 08:00:13;;;;;;;8.45;1.50;;;;;;;;;;13009197;19;20010;-67
2023/05/08 08:04:32;;;;;;;3.33;1.45;;;;;;;;;;13010107;19;20011;-66
2023/05/08 08:08:50;;;;;;;0.75;0.57;;;;;;;;;;13009587;19;20481;-66
2023/05/08 08:13:08;;;;;;;1.48;1.02;;;;;;;;;;13008614;19;20010;-66
2023/05/08 08:17:26;;;;;;;2.97;1.48;;;;;;;;;;13006083;19;20343;-66
2023/05/08 08:21:45;;;;;;;1.13;0.75;;;;;;;;;;13007422;19;20046;-66
2023/05/08 08:26:02;;;;;;;2.77;1.30;;;;;;;;;;13005965;19;20010;-67
2023/05/08 08:30:20;;;;;;;1.98;1.13;;;;;;;;;;13008113;19;20029;-67
2023/05/08 08:34:38;;;;;;;0.73;0.50;;;;;;;;;;13007410;19;20006;-67
2023/05/08 08:38:56;;;;;;;1.90;0.93;;;;;;;;;;13007535;19;20006;-67
2023/05/08 08:43:14;;;;;;;2.20;1.58;;;;;;;;;;13005633;19;20457;-67
2023/05/08 08:47:40;;;;;;;1.73;1.00;;;;;;;;;;13007196;19;20013;-67
2023/05/08 08:52:05;;;;;;;1.70;1.30;;;;;;;;;;13006877;19;20021;-67
2023/05/08 08:56:23;;;;;;;0.60;0.43;;;;;;;;;;13006376;19;20022;-67
2023/05/08 09:00:41;;;;;;;0.90;0.70;;;;;;;;;;13001305;19;20034;-68
2023/05/08 09:05:00;;;;;;;1.20;0.75;;;;;;;;;;13006520;19;20003;-66
2023/05/08 09:09:18;;;;;;;1.63;1.00;;;;;;;;;;13005240;19;20021;-67
2023/05/08 09:13:36;;;;;;;1.65;1.27;;;;;;;;;;13005960;19;20022;-67
2023/05/08 09:17:54;;;;;;;2.53;1.42;;;;;;;;;;13005519;19;20342;-67
2023/05/08 09:22:12;;;;;;;2.33;0.80;;;;;;;;;;13003777;19;20473;-66
2023/05/08 09:26:39;;;;;;;2.83;1.35;;;;;;;;;;13004894;19;20354;-67
2023/05/08 09:30:58;;;;;;;1.20;0.70;;;;;;;;;;13005272;19;20021;-66
2023/05/08 09:35:17;;;;;;;0.90;0.73;;;;;;;;;;13002278;19;20354;-66
2023/05/08 09:39:34;;;;;;;2.25;1.45;;;;;;;;;;13004818;19;20018;-67
2023/05/08 09:44:04;;;;;;;3.13;1.50;;;;;;;;;;13004056;19;20010;-67
2023/05/08 09:48:37;;;;;;;2.55;1.58;;;;;;;;;;13003953;19;20046;-67
2023/05/08 09:52:55;;;;;;;2.67;1.50;;;;;;;;;;13003806;19;20007;-66
2023/05/08 09:57:12;;;;;;;3.72;1.30;;;;;;;;;;13003638;19;19998;-66
2023/05/08 10:01:35;;;;;;;1.38;0.80;;;;;;;;;;13002376;19;20303;-66
2023/05/08 10:06:12;;;;;;;1.65;0.63;;;;;;;;;;13003091;19;20009;-66
2023/05/08 10:10:30;;;;;;;34.03;14.60;;;;;;;;;;13002790;19;20013;-66
2023/05/08 10:14:49;;;;;;;;;;;;;;;;;;13001459;19;20014;-66
2023/05/08 10:19:13;;;;;;;13.93;7.18;;;;;;;;;;13001601;19;19926;-66
2023/05/08 10:23:33;;;;;;;8.63;5.60;;;;;;;;;;13000766;19;20022;-67
2023/05/08 10:27:58;;;;;;;18.08;6.22;;;;;;;;;;13002256;19;20018;-66
2023/05/08 10:32:19;;;;;;;22.30;6.47;;;;;;;;;;13000476;19;20010;-67
2023/05/08 10:36:37;;;;;;;14.57;4.60;;;;;;;;;;13000249;19;20007;-66
2023/05/08 10:41:00;;;;;;;33.25;10.40;;;;;;;;;;12999599;19;20003;-67
2023/05/08 10:45:18;;;;;;;4.22;1.90;;;;;;;;;;12999823;19;20015;-66
2023/05/08 10:49:54;;;;;;;35.78;12.50;;;;;;;;;;13001045;19;20002;-67
2023/05/08 10:54:23;;;;;;;35.50;11.40;;;;;;;;;;12999100;19;20006;-67
2023/05/08 10:58:40;;;;;;;12.27;4.53;;;;;;;;;;13000463;19;20011;-66
2023/05/08 11:03:05;;;;;;;17.13;6.32;;;;;;;;;;13000069;19;20006;-67
2023/05/08 11:07:53;;;;;;;28.58;11.07;;;;;;;;;;13000138;19;20025;-67
2023/05/08 11:12:25;;;;;;;19.20;5.95;;;;;;;;;;12999565;19;20030;-68
2023/05/08 11:16:55;;;;;;;10.98;4.13;;;;;;;;;;12998586;19;20022;-67
2023/05/08 11:21:22;;;;;;;;;;;;;;;;;;12998219;19;20006;-67
2023/05/08 11:25:42;;;;;;;16.33;6.43;;;;;;;;;;13008247;19;20022;-66
2023/05/08 11:30:30;;;;;;;20.02;7.72;;;;;;;;;;13012266;19;20457;-67
2023/05/08 11:34:48;;;;;;;16.30;6.53;;;;;;;;;;13011071;19;20482;-67
2023/05/08 11:39:14;;;;;;;24.98;8.63;;;;;;;;;;13010812;19;20011;-67
2023/05/08 11:43:32;;;;;;;6.28;2.63;;;;;;;;;;13010912;19;20450;-67
2023/05/08 11:47:59;;;;;;;21.40;9.23;;;;;;;;;;13011023;19;20014;-66
2023/05/08 11:52:17;;;;;;;10.45;5.13;;;;;;;;;;13010794;19;20010;-67
2023/05/08 11:56:37;;;;;;;7.78;3.75;;;;;;;;;;13010638;19;20002;-67
2023/05/08 12:00:56;;;;;;;12.27;4.05;;;;;;;;;;13010104;19;19999;-67
2023/05/08 12:05:14;;;;;;;8.02;4.18;;;;;;;;;;13007965;19;20018;-67
2023/05/08 12:09:32;;;;;;;5.57;3.00;;;;;;;;;;13009416;19;20123;-67
2023/05/08 12:13:51;;;;;;;5.28;2.65;;;;;;;;;;13009116;19;20022;-67
2023/05/08 12:18:09;;;;;;;6.22;2.85;;;;;;;;;;13008680;19;20018;-67
2023/05/08 12:22:27;;;;;;;;;;;;;;;;;;13008949;19;20014;-67
2023/05/08 12:26:45;;;;;;;5.55;2.78;;;;;;;;;;13009028;19;19926;-67
2023/05/08 12:31:03;;;;;;;8.25;3.40;;;;;;;;;;13008278;19;20036;-67
2023/05/08 12:35:22;;;;;;;5.88;2.72;;;;;;;;;;13008336;19;20342;-68
2023/05/08 12:39:43;;;;;;;9.23;3.40;;;;;;;;;;13008570;19;20026;-67
2023/05/08 12:44:00;;;;;;;3.47;2.22;;;;;;;;;;13006004;19;20037;-67
2023/05/08 12:48:19;;;;;;;5.75;3.75;;;;;;;;;;13007465;19;20029;-67
2023/05/08 12:52:37;;;;;;;5.25;2.45;;;;;;;;;;13007132;19;20338;-66
2023/05/08 12:56:56;;;;;;;6.97;2.78;;;;;;;;;;13007431;19;20475;-67
2023/05/08 13:01:14;;;;;;;8.07;3.55;;;;;;;;;;13006683;19;20003;-66
2023/05/08 13:05:38;;;;;;;5.65;2.60;;;;;;;;;;13006069;19;20003;-67
2023/05/08 13:10:03;;;;;;;11.55;4.60;;;;;;;;;;13006711;19;19999;-67
2023/05/08 13:14:22;;;;;;;6.75;3.45;;;;;;;;;;13006092;19;20022;-66
2023/05/08 13:18:40;;;;;;;9.25;3.40;;;;;;;;;;13006110;19;20025;-66
2023/05/08 13:22:57;;;;;;;6.43;2.75;;;;;;;;;;13004744;19;20002;-67
2023/05/08 13:27:15;;;;;;;4.63;2.40;;;;;;;;;;13004379;19;20003;-66
2023/05/08 13:31:33;;;;;;;4.32;2.35;;;;;;;;;;13005126;19;20015;-66
2023/05/08 13:35:52;;;;;;;4.28;1.70;;;;;;;;;;13004869;19;20013;-66
2023/05/08 13:40:11;;;;;;;4.55;2.40;;;;;;;;;;13002644;19;20011;-66
2023/05/08 13:44:29;;;;;;;4.15;2.20;;;;;;;;;;13004053;19;20009;-67
2023/05/08 13:48:47;;;;;;;5.85;2.58;;;;;;;;;;13003249;19;20006;-66
2023/05/08 13:53:05;;;;;;;;;;;;;;;;;;13004270;19;20010;-66
2023/05/08 13:57:23;;;;;;;4.78;2.15;;;;;;;;;;13002202;19;19966;-66
2023/05/08 14:01:41;;;;;;;8.07;3.17;;;;;;;;;;13003023;19;20009;-66
2023/05/08 14:05:59;;;;;;;5.43;2.83;;;;;;;;;;13003599;19;20457;-66
2023/05/08 14:10:16;;;;;;;17.70;6.10;;;;;;;;;;13002703;19;20017;-66
2023/05/08 14:14:35;;;;;;;6.18;2.88;;;;;;;;;;13002997;19;20031;-67
2023/05/08 14:18:53;;;;;;;3.25;1.52;;;;;;;;;;13002791;19;20019;-67
2023/05/08 14:23:11;;;;;;;4.80;2.05;;;;;;;;;;12998981;19;20001;-66
2023/05/08 14:27:28;;;;;;;3.58;1.63;;;;;;;;;;13002291;19;20010;-66
2023/05/08 14:31:46;;;;;;;4.43;2.42;;;;;;;;;;13002120;19;20003;-67
2023/05/08 14:36:04;;;;;;;3.08;1.63;;;;;;;;;;13001335;19;20042;-65
2023/05/08 14:40:22;;;;;;;;;;;;;;;;;;13001493;19;20022;-66
2023/05/08 14:44:41;;;;;;;4.85;1.73;;;;;;;;;;13001229;19;20373;-67
2023/05/08 14:48:58;;;;;;;3.35;2.08;;;;;;;;;;13001632;19;20030;-66
2023/05/08 14:53:16;;;;;;;1.77;1.33;;;;;;;;;;13000934;19;20006;-66
2023/05/08 14:57:34;;;;;;;2.60;1.67;;;;;;;;;;12999016;19;20094;-67
2023/05/08 15:01:52;;;;;;;4.20;2.65;;;;;;;;;;13011282;19;20014;-66
2023/05/08 15:06:11;;;;;;;5.10;3.08;;;;;;;;;;13013334;19;20465;-66
2023/05/08 15:10:29;;;;;;;2.50;1.38;;;;;;;;;;13013318;19;20010;-67
2023/05/08 15:14:48;;;;;;;3.47;2.10;;;;;;;;;;13013399;19;20010;-67
2023/05/08 15:19:08;;;;;;;7.78;2.22;;;;;;;;;;13012196;19;20006;-66
2023/05/08 15:23:26;;;;;;;5.88;1.98;;;;;;;;;;13012492;19;20115;-66
2023/05/08 15:27:43;;;;;;;3.60;2.20;;;;;;;;;;13012979;19;20018;-67
2023/05/08 15:32:01;;;;;;;2.15;1.40;;;;;;;;;;13009995;19;20017;-66
2023/05/08 15:36:19;;;;;;;7.38;1.92;;;;;;;;;;13011941;19;20500;-67
2023/05/08 15:40:37;;;;;;;3.17;1.67;;;;;;;;;;13011838;19;20380;-67
2023/05/08 15:44:56;;;;;;;2.13;1.23;;;;;;;;;;13009220;19;20334;-66
2023/05/08 15:49:14;;;;;;;3.80;2.33;;;;;;;;;;13010939;19;20469;-66
2023/05/08 15:53:33;;;;;;;6.07;2.80;;;;;;;;;;13010004;19;20342;-67
2023/05/08 15:57:51;;;;;;;6.72;3.08;;;;;;;;;;13010946;19;20018;-66
2023/05/08 16:02:09;;;;;;;2.30;1.00;;;;;;;;;;13009156;19;20349;-66
2023/05/08 16:06:28;;;;;;;87.75;23.63;;;;;;;;;;13007982;19;20457;-66
2023/05/08 16:10:45;;;;;;;27.52;11.05;;;;;;;;;;13009135;19;19999;-67
2023/05/08 16:15:05;;;;;;;40.35;17.05;;;;;;;;;;13009263;19;20014;-67
2023/05/08 16:19:24;;;;;;;;;;;;;;;;;;13008710;19;20100;-66
2023/05/08 16:23:42;;;;;;;97.47;27.42;;;;;;;;;;13009023;19;19918;-66
2023/05/08 16:27:59;;;;;;;25.05;8.52;;;;;;;;;;13007116;19;20036;-66
2023/05/08 16:32:17;;;;;;;69.30;18.45;;;;;;;;;;13008568;19;20001;-66
2023/05/08 16:36:35;;;;;;;46.95;12.07;;;;;;;;;;13008442;19;20021;-66
2023/05/08 16:40:53;;;;;;;13.98;5.47;;;;;;;;;;13008429;19;20013;-67
2023/05/08 16:45:11;;;;;;;34.22;11.50;;;;;;;;;;13007334;19;20022;-66
2023/05/08 16:49:29;;;;;;;47.65;17.35;;;;;;;;;;13007801;19;20022;-67
2023/05/08 16:53:47;;;;;;;17.70;7.00;;;;;;;;;;13007494;19;20014;-66
2023/05/08 16:58:05;;;;;;;27.00;9.15;;;;;;;;;;13006713;19;20018;-66
2023/05/08 17:02:23;;;;;;;65.90;22.23;;;;;;;;;;13007257;19;20011;-67
2023/05/08 17:06:41;;;;;;;40.00;13.00;;;;;;;;;;13007272;19;20010;-67
2023/05/08 17:10:59;;;;;;;44.63;15.48;;;;;;;;;;13007076;19;20003;-67
2023/05/08 17:15:17;;;;;;;24.17;8.68;;;;;;;;;;13006327;19;20011;-66
2023/05/08 17:19:35;;;;;;;53.20;21.70;;;;;;;;;;13006693;19;20006;-66
2023/05/08 17:23:57;;;;;;;27.65;11.15;;;;;;;;;;13004836;19;20050;-67
2023/05/08 17:28:15;;;;;;;80.72;27.05;;;;;;;;;;13005513;19;20015;-68
2023/05/08 17:32:34;;;;;;;45.50;15.77;;;;;;;;;;13003987;19;20361;-67
2023/05/08 17:36:51;;;;;;;;;;;;;;;;;;13006127;19;20022;-67
2023/05/08 17:41:12;;;;;;;68.93;22.45;;;;;;;;;;13004526;19;20254;-67
2023/05/08 17:45:30;;;;;;;90.25;30.17;;;;;;;;;;13005655;19;20516;-66
2023/05/08 17:49:48;;;;;;;;;;;;;;;;;;13005331;19;20009;-66
2023/05/08 17:54:06;;;;;;;90.43;36.80;;;;;;;;;;13003875;19;20322;-66
2023/05/08 17:58:24;;;;;;;55.05;24.52;;;;;;;;;;13003054;19;20026;-66
2023/05/08 18:02:42;;;;;;;56.00;20.45;;;;;;;;;;13002424;19;20359;-67
2023/05/08 18:07:00;;;;;;;168.48;56.00;;;;;;;;;;13003839;19;20006;-67
2023/05/08 18:11:21;;;;;;;103.63;27.48;;;;;;;;;;13003487;19;20011;-66
2023/05/08 18:15:40;;;;;;;64.07;19.95;;;;;;;;;;12980468;19;20469;-66
2023/05/08 18:19:58;;;;;;;12.88;4.80;;;;;;;;;;13003204;19;20026;-67
2023/05/08 18:24:16;;;;;;;22.10;7.40;;;;;;;;;;13001292;19;19994;-66
2023/05/08 18:28:34;;;;;;;6.07;3.65;;;;;;;;;;13002617;19;20505;-67
2023/05/08 18:32:52;;;;;;;9.68;5.38;;;;;;;;;;13002019;19;20030;-67
2023/05/08 18:37:10;;;;;;;15.80;8.85;;;;;;;;;;13000425;19;20090;-67
2023/05/08 18:41:28;;;;;;;30.85;12.77;;;;;;;;;;13001076;19;20030;-67
2023/05/08 18:45:46;;;;;;;16.45;6.90;;;;;;;;;;13002663;19;20030;-66
2023/05/08 18:50:05;;;;;;;13.35;6.75;;;;;;;;;;13001605;19;20002;-66
2023/05/08 18:54:25;;;;;;;13.60;5.97;;;;;;;;;;12999606;19;20022;-66
2023/05/08 18:58:43;;;;;;;11.20;5.80;;;;;;;;;;13001147;19;20026;-66
2023/05/08 19:03:04;;;;;;;15.25;7.93;;;;;;;;;;12999669;19;20413;-66
2023/05/08 19:07:22;;;;;;;26.88;12.23;;;;;;;;;;13001120;19;20019;-67
2023/05/08 19:11:40;;;;;;;23.58;9.20;;;;;;;;;;13000735;19;20011;-66
2023/05/08 19:15:58;;;;;;;18.23;9.18;;;;;;;;;;13000227;19;20018;-66
2023/05/08 19:20:16;;;;;;;;;;;;;;;;;;13000041;19;20003;-66
2023/05/08 19:24:34;;;;;;;18.17;8.35;;;;;;;;;;12998948;19;20334;-66
2023/05/08 19:28:54;;;;;;;23.20;9.15;;;;;;;;;;12999767;19;20352;-67
2023/05/08 19:33:12;;;;;;;23.63;10.02;;;;;;;;;;12999162;19;20014;-66
2023/05/08 19:37:30;;;;;;;;;;;;;;;;;;12999603;19;20015;-66
2023/05/08 19:41:50;;;;;;;14.43;7.60;;;;;;;;;;12997682;19;20342;-66
2023/05/08 19:46:08;;;;;;;12.10;5.93;;;;;;;;;;13005489;19;20366;-66
2023/05/08 19:50:26;;;;;;;16.33;7.95;;;;;;;;;;13010790;19;20018;-65
2023/05/08 19:54:45;;;;;;;28.92;10.30;;;;;;;;;;13010719;19;20010;-66
2023/05/08 19:59:03;;;;;;;45.60;21.15;;;;;;;;;;13010795;19;20011;-66
2023/05/08 20:03:20;;;;;;;34.83;15.02;;;;;;;;;;13009956;19;20010;-66
2023/05/08 20:07:39;;;;;;;40.45;14.48;;;;;;;;;;13010194;19;20021;-66
2023/05/08 20:11:56;;;;;;;35.10;13.13;;;;;;;;;;13009986;19;20007;-67
2023/05/08 20:16:14;;;;;;;24.48;9.35;;;;;;;;;;13009439;19;20006;-66
2023/05/08 20:20:33;;;;;;;19.42;8.40;;;;;;;;;;13009785;19;20021;-66
2023/05/08 20:24:51;;;;;;;22.08;8.25;;;;;;;;;;13009117;19;20019;-68
2023/05/08 20:29:09;;;;;;;24.40;7.13;;;;;;;;;;13008991;19;20010;-66
2023/05/08 20:33:27;;;;;;;25.77;7.63;;;;;;;;;;13009007;19;20018;-66
2023/05/08 20:37:46;;;;;;;16.08;6.90;;;;;;;;;;13008446;19;20025;-66
2023/05/08 20:42:04;;;;;;;25.50;8.70;;;;;;;;;;13006208;19;20024;-66
2023/05/08 20:46:22;;;;;;;28.50;9.48;;;;;;;;;;13008276;19;20007;-66
2023/05/08 20:50:40;;;;;;;19.05;8.05;;;;;;;;;;13007762;19;20002;-65
2023/05/08 20:54:58;;;;;;;26.73;9.30;;;;;;;;;;13007831;19;20022;-65
2023/05/08 20:59:17;;;;;;;;;;;;;;;;;;13004793;19;20017;-66
2023/05/08 21:03:39;;;;;;;25.95;9.50;;;;;;;;;;13007170;19;19926;-67
2023/05/08 21:08:00;;;;;;;22.08;9.43;;;;;;;;;;13007411;19;20014;-65
2023/05/08 21:12:18;;;;;;;17.63;8.48;;;;;;;;;;13006744;19;20014;-66
2023/05/08 21:16:36;;;;;;;20.92;7.75;;;;;;;;;;13006446;19;20006;-66
2023/05/08 21:20:55;;;;;;;17.58;8.02;;;;;;;;;;13005850;19;19998;-65
2023/05/08 21:25:13;;;;;;;18.30;7.50;;;;;;;;;;13005388;19;20011;-66
2023/05/08 21:29:31;;;;;;;13.88;6.80;;;;;;;;;;13005882;19;20021;-66
2023/05/08 21:33:50;;;;;;;16.95;6.80;;;;;;;;;;13006000;19;20010;-65
2023/05/08 21:38:10;;;;;;;16.27;6.47;;;;;;;;;;13004512;19;19998;-65
2023/05/08 21:42:29;;;;;;;15.30;6.97;;;;;;;;;;13003814;19;20017;-68
2023/05/08 21:46:47;;;;;;;21.10;6.57;;;;;;;;;;13004714;19;20374;-66
2023/05/08 21:51:05;;;;;;;15.63;6.13;;;;;;;;;;13002086;19;20108;-65
2023/05/08 21:55:23;;;;;;;13.57;6.10;;;;;;;;;;13004476;19;20135;-66
2023/05/08 21:59:40;;;;;;;14.23;5.60;;;;;;;;;;13004172;19;20018;-65
2023/05/08 22:03:58;;;;;;;18.13;6.90;;;;;;;;;;13003902;19;20007;-66
2023/05/08 22:08:16;;;;;;;11.38;6.35;;;;;;;;;;13002166;19;20449;-66
2023/05/08 22:12:34;;;;;;;14.93;5.93;;;;;;;;;;13001068;19;20011;-65
2023/05/08 22:16:51;;;;;;;17.13;6.18;;;;;;;;;;13003058;19;19998;-65
2023/05/08 22:21:09;;;;;;;15.95;6.63;;;;;;;;;;13002343;19;20006;-65
2023/05/08 22:25:27;;;;;;;23.50;8.70;;;;;;;;;;13001063;19;20018;-66
2023/05/08 22:29:45;;;;;;;16.90;6.90;;;;;;;;;;13002620;19;20030;-65
2023/05/08 22:34:03;;;;;;;16.92;8.10;;;;;;;;;;13001841;19;20414;-65
2023/05/08 22:38:20;;;;;;;22.10;8.33;;;;;;;;;;13001960;19;20018;-65
2023/05/08 22:42:38;;;;;;;24.48;9.57;;;;;;;;;;13000423;19;20231;-65
2023/05/08 22:46:57;;;;;;;15.63;7.90;;;;;;;;;;13001716;19;20347;-65
2023/05/08 22:51:15;;;;;;;30.10;9.90;;;;;;;;;;12999507;19;20011;-65
2023/05/08 22:55:36;;;;;;;20.15;7.53;;;;;;;;;;13001612;19;20465;-65
2023/05/08 22:59:54;;;;;;;21.50;7.43;;;;;;;;;;13000815;19;20026;-65
2023/05/08 23:04:11;;;;;;;16.80;5.87;;;;;;;;;;12999437;19;20047;-66
2023/05/08 23:08:29;;;;;;;13.65;5.80;;;;;;;;;;13000730;19;20496;-66
2023/05/08 23:12:47;;;;;;;12.38;5.50;;;;;;;;;;13000542;19;19998;-66
2023/05/08 23:17:05;;;;;;;11.82;5.78;;;;;;;;;;12999360;19;20038;-67
2023/05/08 23:21:23;;;;;;;12.93;5.10;;;;;;;;;;13007626;19;20325;-67
2023/05/08 23:25:42;;;;;;;14.07;4.95;;;;;;;;;;13011297;19;20334;-67
2023/05/08 23:29:59;;;;;;;9.88;5.25;;;;;;;;;;13012618;19;20007;-67
2023/05/08 23:34:17;;;;;;;9.73;4.65;;;;;;;;;;13010033;19;20462;-66
2023/05/08 23:38:34;;;;;;;10.87;5.80;;;;;;;;;;13011890;19;20022;-67
2023/05/08 23:42:53;;;;;;;8.50;5.25;;;;;;;;;;13009461;19;20316;-67
2023/05/08 23:47:11;;;;;;;11.80;4.93;;;;;;;;;;13010767;19;20215;-67
2023/05/08 23:51:29;;;;;;;10.65;5.63;;;;;;;;;;13011766;19;20207;-66
2023/05/08 23:55:51;;;;;;;9.82;5.38;;;;;;;;;;13010870;19;20011;-68
